TimeEDT,TemperatureF,Dew PointF,Humidity,Sea Level PressureIn,VisibilityMPH,Wind Direction,Wind SpeedMPH,Gust SpeedMPH,PrecipitationIn,Events,Conditions,WindDirDegrees,DateUTC
12:53 AM,37.0,23.0,57,29.83,10.0,NNW,5.8,-,N/A,,Overcast,340,2013-03-21 04:53:00
1:53 AM,35.6,26.6,70,29.81,10.0,North,4.6,-,N/A,,Overcast,360,2013-03-21 05:53:00
2:23 AM,33.8,28.4,81,29.82,2.0,NNW,4.6,-,0.00,Snow,Light Snow,340,2013-03-21 06:23:00
2:46 AM,32.0,28.4,87,29.81,3.0,NNW,4.6,-,0.00,Snow,Light Snow,340,2013-03-21 06:46:00
2:53 AM,32.0,28.9,88,29.81,4.0,North,4.6,-,0.00,Snow,Light Snow,360,2013-03-21 06:53:00
3:04 AM,32.0,30.2,93,29.80,2.0,North,4.6,-,0.00,Snow,Light Snow,350,2013-03-21 07:04:00
3:24 AM,32.0,30.2,93,29.79,2.5,North,5.8,-,0.00,Snow,Light Snow,350,2013-03-21 07:24:00
3:29 AM,32.0,28.4,87,29.79,3.0,North,5.8,-,0.00,Snow,Light Snow,350,2013-03-21 07:29:00
3:53 AM,30.9,28.9,92,29.78,6.0,Calm,Calm,-,0.00,Snow,Light Snow,0,2013-03-21 07:53:00
4:53 AM,30.9,28.0,89,29.77,10.0,Calm,Calm,-,0.00,,Overcast,0,2013-03-21 08:53:00
5:53 AM,32.0,21.9,66,29.78,10.0,North,5.8,-,N/A,,Overcast,350,2013-03-21 09:53:00
6:53 AM,30.9,19.0,61,29.78,10.0,NNE,6.9,-,N/A,,Overcast,20,2013-03-21 10:53:00
7:53 AM,30.9,19.9,64,29.79,10.0,Calm,Calm,-,N/A,,Overcast,0,2013-03-21 11:53:00
8:53 AM,30.9,17.1,57,29.78,10.0,North,9.2,-,N/A,,Overcast,10,2013-03-21 12:53:00
9:53 AM,32.0,16.0,52,29.77,10.0,Variable,6.9,-,N/A,,Overcast,0,2013-03-21 13:53:00
10:53 AM,33.1,12.9,43,29.76,10.0,NW,11.5,-,N/A,,Overcast,320,2013-03-21 14:53:00
11:53 AM,34.0,12.0,40,29.73,10.0,NNE,9.2,-,N/A,,Overcast,20,2013-03-21 15:53:00
12:53 PM,36.0,12.0,37,29.71,10.0,NW,8.1,-,N/A,,Overcast,310,2013-03-21 16:53:00
1:53 PM,37.0,10.9,34,29.69,10.0,NW,10.4,17.3,N/A,,Overcast,310,2013-03-21 17:53:00
2:53 PM,39.0,10.9,32,29.67,10.0,NNW,10.4,17.3,N/A,,Overcast,330,2013-03-21 18:53:00
3:53 PM,37.9,12.0,35,29.65,10.0,North,5.8,-,N/A,,Overcast,360,2013-03-21 19:53:00
4:53 PM,39.0,10.0,30,29.64,10.0,Variable,5.8,-,N/A,,Mostly Cloudy,0,2013-03-21 20:53:00
5:53 PM,37.9,10.0,32,29.66,10.0,WNW,10.4,-,N/A,,Mostly Cloudy,300,2013-03-21 21:53:00
6:53 PM,36.0,10.9,36,29.68,10.0,NW,10.4,-,N/A,,Overcast,310,2013-03-21 22:53:00
7:53 PM,33.1,15.1,48,29.71,10.0,WNW,6.9,-,N/A,,Mostly Cloudy,300,2013-03-21 23:53:00
8:53 PM,30.9,14.0,50,29.73,10.0,WNW,4.6,-,N/A,,Clear,300,2013-03-22 00:53:00
9:53 PM,30.9,15.1,52,29.74,10.0,WNW,5.8,-,N/A,,Clear,300,2013-03-22 01:53:00
10:53 PM,30.0,12.9,49,29.75,10.0,WNW,4.6,-,N/A,,Clear,290,2013-03-22 02:53:00
11:53 PM,28.0,14.0,56,29.76,10.0,Calm,Calm,-,N/A,,Clear,0,2013-03-22 03:53:00